createdAt,value
2023-03-27T00:00:17.023Z,1.77
2023-03-27T00:02:47.324Z,1.60
2023-03-27T00:05:17.488Z,2.23
2023-03-27T00:07:53.148Z,2.03
2023-03-27T00:10:34.348Z,2.97
2023-03-27T00:13:05.370Z,2.20
2023-03-27T00:15:37.309Z,1.73
2023-03-27T00:18:08.199Z,2.00
2023-03-27T00:20:37.875Z,2.03
2023-03-27T00:23:14.653Z,1.90
2023-03-27T00:25:44.779Z,3.03
2023-03-27T00:28:17.015Z,2.20
2023-03-27T00:30:47.941Z,2.43
2023-03-27T00:33:19.133Z,3.07
2023-03-27T00:35:51.716Z,2.03
2023-03-27T00:38:21.555Z,2.27
2023-03-27T00:40:53.755Z,1.97
2023-03-27T00:43:48.380Z,2.10
2023-03-27T00:46:37.011Z,2.77
2023-03-27T00:49:13.170Z,2.33
2023-03-27T00:51:47.717Z,2.63
2023-03-27T00:54:29.434Z,3.90
2023-03-27T00:57:03.503Z,2.57
2023-03-27T00:59:39.247Z,2.20
2023-03-27T01:02:11.044Z,3.13
2023-03-27T01:04:42.860Z,2.40
2023-03-27T01:07:17.303Z,3.17
2023-03-27T01:09:48.209Z,2.00
2023-03-27T01:12:57.386Z,2.07
2023-03-27T01:15:46.086Z,1.80
2023-03-27T01:18:41.809Z,1.80
2023-03-27T01:21:47.850Z,1.60
2023-03-27T01:24:44.924Z,2.27
2023-03-27T01:27:46.821Z,1.73
2023-03-27T01:30:26.129Z,1.73
2023-03-27T01:33:29.182Z,1.70
2023-03-27T01:36:12.335Z,1.60
2023-03-27T01:39:16.517Z,1.80
2023-03-27T01:42:04.454Z,1.53
2023-03-27T01:45:10.717Z,1.50
2023-03-27T01:47:38.454Z,1.63
2023-03-27T01:50:24.320Z,1.87
2023-03-27T01:53:00.122Z,1.20
2023-03-27T01:55:39.679Z,1.40
2023-03-27T01:58:24.867Z,1.50
2023-03-27T02:00:56.556Z,1.43
2023-03-27T02:03:49.103Z,1.30
2023-03-27T02:06:16.393Z,1.40
2023-03-27T02:09:10.250Z,1.50
2023-03-27T02:11:42.836Z,1.87
2023-03-27T02:14:22.891Z,1.50
2023-03-27T02:16:58.250Z,1.87
2023-03-27T02:19:35.179Z,2.30
2023-03-27T02:22:05.587Z,2.03
2023-03-27T02:24:46.324Z,2.07
2023-03-27T02:27:45.060Z,2.47
2023-03-27T02:31:05.541Z,2.60
2023-03-27T02:33:57.311Z,2.33
2023-03-27T02:36:49.454Z,2.37
2023-03-27T02:39:44.457Z,2.17
2023-03-27T02:43:07.334Z,2.23
2023-03-27T02:46:26.623Z,2.67
2023-03-27T02:48:58.154Z,2.30
2023-03-27T02:51:38.207Z,2.20
2023-03-27T02:54:23.847Z,2.20
2023-03-27T02:56:57.967Z,2.00
2023-03-27T02:59:43.039Z,2.20
2023-03-27T03:02:25.272Z,1.90
2023-03-27T03:05:09.110Z,1.80
2023-03-27T03:07:40.385Z,1.63
2023-03-27T03:10:12.353Z,1.50
2023-03-27T03:12:43.216Z,1.43
2023-03-27T03:15:11.719Z,1.40
2023-03-27T03:17:46.084Z,1.33
2023-03-27T03:20:17.241Z,1.17
2023-03-27T03:23:00.794Z,1.20
2023-03-27T03:25:32.194Z,1.10
2023-03-27T03:28:05.567Z,1.13
2023-03-27T03:30:40.093Z,1.10
2023-03-27T03:33:14.111Z,1.03
2023-03-27T03:35:43.714Z,1.27
2023-03-27T03:38:26.529Z,0.87
2023-03-27T03:41:02.217Z,1.20
2023-03-27T03:43:33.031Z,1.60
2023-03-27T03:46:06.307Z,1.23
2023-03-27T03:48:36.064Z,1.47
2023-03-27T03:51:07.228Z,1.23
2023-03-27T03:53:35.934Z,1.50
2023-03-27T03:56:06.926Z,2.70
2023-03-27T03:58:35.984Z,1.60
2023-03-27T04:01:07.660Z,1.73
2023-03-27T04:03:42.401Z,1.60
2023-03-27T04:06:15.320Z,1.80
2023-03-27T04:08:48.589Z,1.63
2023-03-27T04:12:00.744Z,1.70
2023-03-27T04:14:47.510Z,1.67
2023-03-27T04:17:40.653Z,1.60
2023-03-27T04:20:18.264Z,1.40
2023-03-27T04:22:50.901Z,1.60
2023-03-27T04:25:22.691Z,1.50
2023-03-27T04:27:56.636Z,1.40
2023-03-27T04:30:36.028Z,1.70
2023-03-27T04:33:26.108Z,1.33
2023-03-27T04:36:35.007Z,1.23
2023-03-27T04:39:25.047Z,1.40
2023-03-27T04:41:54.394Z,1.17
2023-03-27T04:44:23.783Z,1.10
2023-03-27T04:46:53.724Z,1.10
2023-03-27T04:49:22.448Z,1.50
2023-03-27T04:52:11.616Z,1.00
2023-03-27T04:54:40.514Z,0.97
2023-03-27T04:57:11.025Z,1.03
2023-03-27T04:59:39.809Z,1.20
2023-03-27T05:02:27.968Z,0.70
2023-03-27T05:05:05.002Z,1.23
2023-03-27T05:07:48.804Z,0.87
2023-03-27T05:10:26.791Z,0.93
2023-03-27T05:12:58.376Z,0.80
2023-03-27T05:15:27.085Z,0.80
2023-03-27T05:18:03.613Z,0.70
2023-03-27T05:20:38.429Z,0.90
2023-03-27T05:23:10.936Z,1.30
2023-03-27T05:25:40.169Z,0.80
2023-03-27T05:28:13.725Z,1.03
2023-03-27T05:30:45.231Z,1.20
2023-03-27T05:33:34.128Z,0.63
2023-03-27T05:36:09.267Z,0.80
2023-03-27T05:38:41.326Z,0.70
2023-03-27T05:41:28.015Z,0.60
2023-03-27T05:43:57.370Z,0.67
2023-03-27T05:46:27.288Z,1.20
2023-03-27T05:49:15.779Z,0.73
2023-03-27T05:51:48.781Z,1.10
2023-03-27T05:54:21.885Z,0.70
2023-03-27T05:56:57.711Z,0.70
2023-03-27T05:59:26.558Z,1.00
2023-03-27T06:02:00.670Z,0.90
2023-03-27T06:04:44.426Z,0.60
2023-03-27T06:07:20.462Z,1.43
2023-03-27T06:09:49.527Z,1.47
2023-03-27T06:12:40.098Z,1.13
2023-03-27T06:15:20.564Z,0.70
2023-03-27T06:18:13.758Z,0.90
2023-03-27T06:20:43.813Z,0.57
2023-03-27T06:23:15.483Z,1.90
2023-03-27T06:25:51.605Z,0.93
2023-03-27T06:28:26.550Z,0.70
2023-03-27T06:30:55.839Z,0.53
2023-03-27T06:33:45.115Z,1.57
2023-03-27T06:36:34.425Z,1.37
2023-03-27T06:39:08.732Z,0.80
2023-03-27T06:41:36.639Z,0.57
2023-03-27T06:44:33.136Z,0.77
2023-03-27T06:47:19.010Z,0.90
2023-03-27T06:50:08.820Z,0.70
2023-03-27T06:52:40.368Z,2.10
2023-03-27T06:55:35.489Z,2.40
2023-03-27T06:58:05.896Z,1.97
2023-03-27T07:00:40.427Z,2.63
2023-03-27T07:03:27.909Z,2.10
2023-03-27T07:06:09.000Z,3.33
2023-03-27T07:08:59.525Z,2.00
2023-03-27T07:11:28.938Z,1.50
2023-03-27T07:14:03.429Z,2.03
2023-03-27T07:16:32.690Z,1.80
2023-03-27T07:19:05.589Z,2.53
2023-03-27T07:21:36.756Z,1.90
2023-03-27T07:24:05.575Z,4.37
2023-03-27T07:26:40.574Z,2.63
2023-03-27T07:29:30.062Z,1.40
2023-03-27T07:32:04.297Z,2.40
2023-03-27T07:34:41.844Z,1.27
2023-03-27T07:37:24.742Z,1.40
2023-03-27T07:40:38.981Z,1.60
2023-03-27T07:43:36.060Z,2.90
2023-03-27T07:46:08.918Z,2.40
2023-03-27T07:48:38.603Z,2.40
2023-03-27T07:51:14.103Z,2.00
2023-03-27T07:53:44.896Z,2.47
2023-03-27T07:56:42.128Z,1.63
2023-03-27T07:59:36.437Z,2.03
2023-03-27T08:02:19.250Z,3.73
2023-03-27T08:04:47.782Z,2.67
2023-03-27T08:07:18.425Z,2.60
2023-03-27T08:09:46.733Z,2.27
2023-03-27T08:12:15.928Z,2.27
2023-03-27T08:14:58.594Z,2.40
2023-03-27T08:17:33.254Z,2.20
2023-03-27T08:20:11.826Z,3.77
2023-03-27T08:22:47.598Z,4.30
2023-03-27T08:25:35.654Z,4.63
2023-03-27T08:28:07.278Z,5.57
2023-03-27T08:30:35.781Z,12.87
2023-03-27T08:33:06.325Z,4.20
2023-03-27T08:35:34.996Z,2.90
2023-03-27T08:38:20.051Z,3.50
2023-03-27T08:41:41.774Z,4.37
2023-03-27T08:44:26.014Z,3.80
2023-03-27T08:47:29.773Z,3.80
2023-03-27T08:50:12.554Z,3.70
2023-03-27T08:52:51.830Z,4.57
2023-03-27T08:55:43.412Z,2.43
2023-03-27T08:58:35.448Z,2.37
2023-03-27T09:01:56.129Z,2.17
2023-03-27T09:04:41.943Z,2.00
2023-03-27T09:07:45.950Z,1.60
2023-03-27T09:11:04.027Z,3.13
2023-03-27T09:13:46.964Z,3.03
2023-03-27T09:16:40.457Z,4.10
2023-03-27T09:19:20.393Z,3.03
2023-03-27T09:22:02.722Z,2.50
2023-03-27T09:25:02.524Z,1.97
2023-03-27T09:28:26.211Z,2.53
2023-03-27T09:31:29.244Z,1.97
2023-03-27T09:34:08.372Z,3.20
2023-03-27T09:36:39.113Z,4.93
2023-03-27T09:39:17.758Z,2.60
2023-03-27T09:41:56.219Z,3.20
2023-03-27T09:44:31.304Z,3.50
2023-03-27T09:47:16.963Z,4.73
2023-03-27T09:50:19.631Z,3.23
2023-03-27T09:53:19.388Z,2.50
2023-03-27T09:56:21.474Z,2.60
2023-03-27T09:58:56.572Z,2.70
2023-03-27T10:01:38.731Z,4.00
2023-03-27T10:04:32.517Z,3.00
2023-03-27T10:07:12.358Z,2.60
2023-03-27T10:10:20.430Z,2.07
2023-03-27T10:13:07.007Z,2.80
2023-03-27T10:15:42.823Z,1.70
2023-03-27T10:18:42.327Z,2.93
2023-03-27T10:21:39.909Z,3.77
2023-03-27T10:24:25.292Z,3.33
2023-03-27T10:27:25.563Z,2.10
2023-03-27T10:30:43.213Z,6.17
2023-03-27T10:33:42.482Z,2.60
2023-03-27T10:36:40.215Z,2.30
2023-03-27T10:39:16.833Z,2.53
2023-03-27T10:42:12.146Z,2.80
2023-03-27T10:44:48.408Z,2.90
2023-03-27T10:47:26.860Z,3.00
2023-03-27T10:50:12.881Z,3.50
2023-03-27T10:53:09.508Z,4.93
2023-03-27T10:56:03.540Z,6.23
2023-03-27T10:58:55.469Z,7.13
2023-03-27T11:01:58.579Z,4.60
2023-03-27T11:04:49.080Z,4.83
2023-03-27T11:07:33.905Z,4.37
2023-03-27T11:10:20.475Z,4.13
2023-03-27T11:12:59.933Z,4.00
2023-03-27T11:15:34.090Z,3.90
2023-03-27T11:18:34.602Z,3.67
2023-03-27T11:21:33.928Z,4.00
2023-03-27T11:24:17.307Z,3.93
2023-03-27T11:27:14.461Z,4.00
2023-03-27T11:30:30.341Z,4.43
2023-03-27T11:33:27.842Z,4.90
2023-03-27T11:36:28.471Z,4.50
2023-03-27T11:39:52.258Z,4.37
2023-03-27T11:42:24.232Z,4.53
2023-03-27T11:44:56.870Z,4.33
2023-03-27T11:48:02.245Z,5.00
2023-03-27T11:51:18.738Z,4.50
2023-03-27T11:53:54.775Z,4.13
2023-03-27T11:56:44.184Z,4.27
2023-03-27T11:59:50.675Z,3.93
2023-03-27T12:02:58.259Z,4.43
2023-03-27T12:06:00.329Z,3.87
2023-03-27T12:09:11.701Z,3.97
2023-03-27T12:12:17.335Z,3.67
2023-03-27T12:15:39.358Z,5.00
2023-03-27T12:18:51.187Z,3.90
2023-03-27T12:21:47.101Z,4.63
2023-03-27T12:24:59.421Z,3.10
2023-03-27T12:28:22.941Z,3.57
2023-03-27T12:31:35.660Z,3.13
2023-03-27T12:34:40.671Z,3.10
2023-03-27T12:37:12.612Z,3.27
2023-03-27T12:40:30.907Z,2.70
2023-03-27T12:43:29.667Z,3.30
2023-03-27T12:46:28.915Z,3.30
2023-03-27T12:49:14.032Z,2.60
2023-03-27T12:52:00.335Z,3.37
2023-03-27T12:55:07.718Z,7.33
2023-03-27T12:58:02.240Z,5.87
2023-03-27T13:01:04.068Z,3.80
2023-03-27T13:04:34.332Z,3.43
2023-03-27T13:07:54.659Z,3.10
2023-03-27T13:11:00.035Z,2.63
2023-03-27T13:13:58.444Z,4.30
2023-03-27T13:16:51.461Z,3.13
2023-03-27T13:19:42.334Z,2.90
2023-03-27T13:22:39.594Z,4.83
2023-03-27T13:25:31.768Z,3.37
2023-03-27T13:28:29.809Z,3.90
2023-03-27T13:31:51.804Z,3.20
2023-03-27T13:35:08.302Z,2.60
2023-03-27T13:38:00.941Z,2.73
2023-03-27T13:40:43.406Z,2.70
2023-03-27T13:43:35.389Z,2.33
2023-03-27T13:46:33.910Z,2.40
2023-03-27T13:49:57.265Z,2.77
2023-03-27T13:52:49.607Z,2.67
2023-03-27T13:56:04.200Z,3.43
2023-03-27T13:59:19.089Z,4.57
2023-03-27T14:02:30.431Z,2.67
2023-03-27T14:05:19.816Z,3.33
2023-03-27T14:08:24.728Z,2.10
2023-03-27T14:11:38.922Z,2.60
2023-03-27T14:14:41.974Z,2.43
2023-03-27T14:17:37.431Z,3.60
2023-03-27T14:20:33.255Z,2.63
2023-03-27T14:23:04.864Z,2.43
2023-03-27T14:26:21.340Z,2.43
2023-03-27T14:29:03.514Z,2.60
2023-03-27T14:31:53.167Z,5.77
2023-03-27T14:34:56.864Z,3.05
2023-03-27T14:37:39.638Z,2.23
2023-03-27T14:40:30.524Z,3.03
2023-03-27T14:43:03.779Z,2.57
2023-03-27T14:45:41.775Z,2.10
2023-03-27T14:48:32.917Z,2.70
2023-03-27T14:51:08.214Z,2.97
2023-03-27T14:53:44.861Z,2.07
2023-03-27T14:56:48.250Z,2.53
2023-03-27T14:59:56.589Z,1.97
2023-03-27T15:02:37.372Z,2.27
2023-03-27T15:05:13.122Z,2.73
2023-03-27T15:07:52.261Z,2.37
2023-03-27T15:10:54.924Z,1.80
2023-03-27T15:13:39.986Z,2.13
2023-03-27T15:16:23.788Z,2.27
2023-03-27T15:19:15.836Z,2.73
2023-03-27T15:22:12.340Z,2.47
2023-03-27T15:24:55.933Z,1.80
2023-03-27T15:27:39.124Z,1.90
2023-03-27T15:30:29.358Z,3.00
2023-03-27T15:33:02.695Z,2.83
2023-03-27T15:35:45.968Z,2.17
2023-03-27T15:38:30.930Z,2.30
2023-03-27T15:41:25.362Z,2.60
2023-03-27T15:44:08.894Z,2.20
2023-03-27T15:47:00.849Z,2.00
2023-03-27T15:49:48.225Z,2.80
2023-03-27T15:52:34.220Z,2.63
2023-03-27T15:55:05.010Z,2.10
2023-03-27T15:57:33.710Z,2.60
2023-03-27T16:00:23.872Z,2.30
2023-03-27T16:02:57.256Z,3.30
2023-03-27T16:05:30.476Z,2.80
2023-03-27T16:08:05.731Z,2.83
2023-03-27T16:10:35.298Z,1.80
2023-03-27T16:13:04.068Z,2.30
2023-03-27T16:15:59.158Z,2.53
2023-03-27T16:18:50.054Z,2.57
2023-03-27T16:21:26.593Z,4.80
2023-03-27T16:23:59.913Z,3.70
2023-03-27T16:26:34.890Z,1.80
2023-03-27T16:29:05.450Z,2.63
2023-03-27T16:31:35.983Z,2.60
2023-03-27T16:34:23.162Z,1.93
2023-03-27T16:36:57.289Z,2.60
2023-03-27T16:39:26.118Z,3.50
2023-03-27T16:41:56.636Z,2.30
2023-03-27T16:44:24.757Z,2.93
2023-03-27T16:46:52.730Z,2.37
2023-03-27T16:49:19.785Z,2.03
2023-03-27T16:51:47.783Z,3.70
2023-03-27T16:54:20.314Z,2.00
2023-03-27T16:56:56.209Z,2.80
2023-03-27T16:59:28.753Z,2.38
2023-03-27T17:01:56.659Z,2.57
2023-03-27T17:04:33.009Z,2.93
2023-03-27T17:07:01.800Z,4.23
2023-03-27T17:09:33.455Z,3.43
2023-03-27T17:12:03.981Z,2.37
2023-03-27T17:14:38.940Z,2.90
2023-03-27T17:17:10.010Z,3.17
2023-03-27T17:22:20.477Z,4.27
2023-03-27T17:24:56.569Z,4.60
2023-03-27T17:27:26.882Z,4.13
2023-03-27T17:29:56.569Z,3.20
2023-03-27T17:32:30.186Z,2.93
2023-03-27T17:35:03.504Z,3.37
2023-03-27T17:37:34.893Z,2.70
2023-03-27T17:40:09.853Z,3.90
2023-03-27T17:42:42.428Z,3.13
2023-03-27T17:45:24.296Z,3.53
2023-03-27T17:47:53.100Z,1.97
2023-03-27T17:50:35.425Z,3.13
2023-03-27T17:53:06.979Z,4.10
2023-03-27T17:55:41.905Z,2.67
2023-03-27T17:58:14.077Z,3.37
2023-03-27T18:00:44.510Z,2.47
2023-03-27T18:03:14.016Z,2.93
2023-03-27T18:05:52.065Z,3.10
2023-03-27T18:08:23.450Z,2.47
2023-03-27T18:10:52.287Z,2.50
2023-03-27T18:13:20.610Z,3.03
2023-03-27T18:15:59.198Z,2.70
2023-03-27T18:18:30.622Z,2.73
2023-03-27T18:21:05.199Z,2.40
2023-03-27T18:23:36.656Z,2.50
2023-03-27T18:26:20.529Z,3.17
2023-03-27T18:28:53.746Z,2.30
2023-03-27T18:31:23.299Z,2.30
2023-03-27T18:33:53.080Z,3.73
2023-03-27T18:36:27.921Z,2.83
2023-03-27T18:39:01.834Z,2.77
2023-03-27T18:41:34.700Z,3.30
2023-03-27T18:44:06.735Z,3.07
2023-03-27T18:46:46.344Z,4.23
2023-03-27T18:49:24.858Z,4.80
2023-03-27T18:51:56.862Z,6.53
2023-03-27T18:54:30.321Z,4.03
2023-03-27T18:57:04.669Z,10.47
2023-03-27T18:59:34.274Z,5.17
2023-03-27T19:02:05.914Z,5.60
2023-03-27T19:04:41.751Z,3.03
2023-03-27T19:07:14.676Z,3.50
2023-03-27T19:09:44.141Z,3.10
2023-03-27T19:12:15.249Z,3.47
2023-03-27T19:15:19.813Z,2.80
2023-03-27T19:18:12.461Z,4.03
2023-03-27T19:21:22.348Z,4.30
2023-03-27T19:24:05.602Z,3.37
2023-03-27T19:26:42.565Z,3.73
2023-03-27T19:29:16.423Z,2.97
2023-03-27T19:31:48.398Z,3.63
2023-03-27T19:34:32.709Z,3.20
2023-03-27T19:37:13.496Z,3.17
2023-03-27T19:39:44.885Z,3.20
2023-03-27T19:42:18.178Z,3.50
2023-03-27T19:44:55.822Z,2.40
2023-03-27T19:47:34.383Z,3.40
2023-03-27T19:53:08.691Z,2.93
2023-03-27T19:55:44.316Z,2.70
2023-03-27T19:58:14.760Z,3.47
2023-03-27T20:00:53.529Z,2.83
2023-03-27T20:06:20.060Z,3.60
2023-03-27T20:08:55.788Z,3.07
2023-03-27T20:11:27.250Z,4.47
2023-03-27T20:13:57.260Z,12.20
2023-03-27T20:16:37.901Z,7.03
2023-03-27T20:19:08.193Z,3.57
2023-03-27T20:21:47.004Z,3.67
2023-03-27T20:24:21.091Z,3.43
2023-03-27T20:27:00.291Z,3.10
2023-03-27T20:29:34.287Z,2.63
2023-03-27T20:32:03.044Z,2.90
2023-03-27T20:34:32.555Z,2.70
2023-03-27T20:37:17.819Z,2.53
2023-03-27T20:40:14.655Z,3.33
2023-03-27T20:42:49.872Z,2.70
2023-03-27T20:45:31.276Z,3.40
2023-03-27T20:48:04.832Z,3.90
2023-03-27T20:50:35.122Z,3.57
2023-03-27T20:53:05.026Z,2.73
2023-03-27T20:55:39.189Z,2.93
2023-03-27T20:58:13.694Z,3.80
2023-03-27T21:00:47.056Z,2.93
2023-03-27T21:03:16.549Z,3.03
2023-03-27T21:05:51.325Z,2.93
2023-03-27T21:08:21.955Z,4.10
2023-03-27T21:10:56.595Z,4.93
2023-03-27T21:13:30.373Z,3.70
2023-03-27T21:16:00.509Z,7.47
2023-03-27T21:18:29.560Z,4.83
2023-03-27T21:20:56.556Z,3.40
2023-03-27T21:23:33.894Z,4.93
2023-03-27T21:26:01.732Z,3.83
2023-03-27T21:28:31.961Z,3.00
2023-03-27T21:31:10.773Z,4.33
2023-03-27T21:33:40.805Z,3.73
2023-03-27T21:36:11.746Z,3.87
2023-03-27T21:38:40.516Z,2.90
2023-03-27T21:41:13.131Z,2.73
2023-03-27T21:43:43.695Z,3.10
2023-03-27T21:46:13.787Z,2.90
2023-03-27T21:48:49.909Z,3.13
2023-03-27T21:51:24.184Z,2.53
2023-03-27T21:53:53.967Z,2.37
2023-03-27T21:56:22.267Z,2.10
2023-03-27T21:58:51.917Z,2.43
2023-03-27T22:01:21.916Z,2.37
2023-03-27T22:03:50.494Z,2.07
2023-03-27T22:06:19.927Z,2.87
2023-03-27T22:08:50.309Z,2.27
2023-03-27T22:11:18.836Z,2.67
2023-03-27T22:13:55.390Z,2.53
2023-03-27T22:16:27.128Z,2.27
2023-03-27T22:19:04.714Z,2.17
2023-03-27T22:21:35.059Z,2.20
2023-03-27T22:24:02.791Z,1.80
2023-03-27T22:26:37.152Z,2.20
2023-03-27T22:29:10.902Z,1.80
2023-03-27T22:31:45.290Z,2.40
2023-03-27T22:34:19.293Z,1.87
2023-03-27T22:36:54.138Z,1.87
2023-03-27T22:39:21.584Z,2.20
2023-03-27T22:44:34.768Z,2.13
2023-03-27T22:47:03.308Z,1.93
2023-03-27T22:49:32.814Z,3.13
2023-03-27T22:52:06.740Z,1.90
2023-03-27T22:54:36.507Z,1.50
2023-03-27T22:57:11.904Z,1.60
2023-03-27T22:59:43.622Z,1.93
2023-03-27T23:02:12.839Z,2.07
2023-03-27T23:04:43.462Z,1.87
2023-03-27T23:07:13.174Z,2.57
2023-03-27T23:09:45.931Z,1.50
2023-03-27T23:12:24.888Z,1.90
2023-03-27T23:14:53.845Z,2.93
2023-03-27T23:17:35.234Z,1.90
2023-03-27T23:20:03.488Z,1.77
2023-03-27T23:22:32.956Z,2.30
2023-03-27T23:25:03.435Z,1.77
2023-03-27T23:27:31.040Z,2.23
2023-03-27T23:29:58.490Z,1.80
2023-03-27T23:32:29.556Z,2.50
2023-03-27T23:35:02.156Z,3.40
2023-03-27T23:37:33.627Z,2.20
2023-03-27T23:40:04.537Z,2.20
2023-03-27T23:42:34.826Z,1.97
2023-03-27T23:45:03.384Z,2.27
2023-03-27T23:47:33.823Z,1.90
2023-03-27T23:50:02.000Z,1.97
2023-03-27T23:52:32.833Z,2.80
2023-03-27T23:55:02.788Z,2.40
2023-03-27T23:57:34.608Z,2.70
